createdAt,value
2022-10-18T00:00:20.043Z,37.40
2022-10-18T00:00:52.156Z,26.02
2022-10-18T00:01:24.312Z,35.38
2022-10-18T00:01:59.696Z,36.25
2022-10-18T00:02:31.925Z,33.20
2022-10-18T00:03:04.260Z,36.42
2022-10-18T00:03:39.768Z,37.95
2022-10-18T00:04:11.899Z,38.67
2022-10-18T00:04:43.987Z,38.47
2022-10-18T00:05:18.784Z,32.88
2022-10-18T00:05:51.203Z,35.70
2022-10-18T00:06:23.329Z,38.40
2022-10-18T00:06:57.965Z,29.50
2022-10-18T00:07:30.248Z,22.63
2022-10-18T00:08:03.120Z,31.40
2022-10-18T00:08:38.165Z,40.67
2022-10-18T00:09:10.287Z,27.27
2022-10-18T00:09:44.998Z,31.13
2022-10-18T00:10:20.014Z,27.55
2022-10-18T00:10:52.173Z,26.98
2022-10-18T00:11:24.590Z,28.15
2022-10-18T00:11:59.902Z,25.50
2022-10-18T00:12:33.441Z,30.13
2022-10-18T00:13:05.541Z,29.70
2022-10-18T00:13:40.516Z,29.83
2022-10-18T00:14:12.734Z,31.23
2022-10-18T00:14:44.839Z,33.35
2022-10-18T00:15:19.871Z,43.22
2022-10-18T00:15:53.935Z,29.42
2022-10-18T00:16:26.013Z,38.75
2022-10-18T00:16:58.407Z,40.85
2022-10-18T00:17:33.229Z,32.35
2022-10-18T00:18:05.495Z,41.53
2022-10-18T00:18:37.682Z,38.38
2022-10-18T00:19:12.356Z,22.00
2022-10-18T00:19:44.535Z,37.80
2022-10-18T00:20:16.954Z,29.08
2022-10-18T00:21:00.697Z,26.17
2022-10-18T00:21:32.858Z,27.75
2022-10-18T00:22:05.065Z,29.50
2022-10-18T00:22:41.130Z,31.27
2022-10-18T00:23:13.248Z,33.53
2022-10-18T00:23:47.746Z,30.55
2022-10-18T00:24:22.562Z,25.30
2022-10-18T00:24:57.334Z,26.55
2022-10-18T00:25:29.483Z,32.13
2022-10-18T00:26:10.777Z,24.55
2022-10-18T00:26:42.990Z,18.05
2022-10-18T00:27:15.271Z,34.35
2022-10-18T00:27:50.021Z,42.72
2022-10-18T00:28:22.098Z,28.02
2022-10-18T00:28:56.580Z,34.35
2022-10-18T00:29:31.285Z,35.20
2022-10-18T00:30:03.870Z,21.17
2022-10-18T00:30:36.095Z,30.05
2022-10-18T00:31:16.716Z,25.90
2022-10-18T00:31:51.443Z,34.80
2022-10-18T00:32:23.860Z,31.38
2022-10-18T00:32:55.991Z,28.00
2022-10-18T00:33:30.634Z,47.80
2022-10-18T00:34:05.303Z,23.15
2022-10-18T00:34:41.022Z,39.50
2022-10-18T00:35:13.163Z,27.88
2022-10-18T00:35:45.267Z,41.92
2022-10-18T00:36:20.363Z,32.35
2022-10-18T00:36:52.448Z,31.58
2022-10-18T00:37:24.653Z,35.15
2022-10-18T00:37:59.302Z,39.70
2022-10-18T00:38:32.519Z,29.75
2022-10-18T00:39:06.238Z,33.83
2022-10-18T00:39:41.240Z,40.40
2022-10-18T00:40:16.035Z,34.28
2022-10-18T00:40:48.126Z,37.13
2022-10-18T00:41:25.967Z,34.42
2022-10-18T00:41:58.246Z,40.35
2022-10-18T00:42:35.096Z,36.55
2022-10-18T00:43:17.617Z,39.50
2022-10-18T00:43:55.226Z,36.42
2022-10-18T00:44:57.409Z,34.03
2022-10-18T00:45:32.321Z,29.55
2022-10-18T00:46:04.654Z,36.55
2022-10-18T00:46:38.533Z,41.17
2022-10-18T00:47:13.370Z,40.35
2022-10-18T00:47:52.040Z,32.42
2022-10-18T00:48:24.373Z,27.48
2022-10-18T00:48:58.844Z,33.25
2022-10-18T00:49:36.837Z,32.92
2022-10-18T00:50:10.506Z,55.72
2022-10-18T00:50:43.302Z,43.90
2022-10-18T00:51:19.685Z,37.65
2022-10-18T00:51:59.287Z,25.38
2022-10-18T00:52:35.440Z,37.45
2022-10-18T00:53:15.816Z,34.67
2022-10-18T00:54:21.556Z,42.53
2022-10-18T00:54:58.220Z,26.35
2022-10-18T00:55:34.440Z,42.50
2022-10-18T00:56:07.581Z,35.10
2022-10-18T00:56:44.863Z,30.58
2022-10-18T00:57:17.695Z,40.00
2022-10-18T00:57:50.519Z,32.33
2022-10-18T00:58:25.230Z,40.28
2022-10-18T00:58:57.896Z,33.33
2022-10-18T00:59:30.540Z,27.27
2022-10-18T01:00:09.704Z,39.33
2022-10-18T01:00:41.993Z,26.27
2022-10-18T01:01:14.121Z,39.60
2022-10-18T01:01:49.142Z,24.42
2022-10-18T01:02:22.113Z,32.63
2022-10-18T01:02:56.815Z,37.13
2022-10-18T01:03:28.943Z,46.75
2022-10-18T01:04:01.470Z,31.88
2022-10-18T01:04:36.785Z,23.65
2022-10-18T01:05:11.626Z,24.45
2022-10-18T01:05:50.448Z,28.45
2022-10-18T01:06:23.648Z,34.72
2022-10-18T01:07:01.373Z,36.92
2022-10-18T01:08:00.768Z,27.15
2022-10-18T01:08:57.057Z,25.67
2022-10-18T01:09:38.199Z,26.60
2022-10-18T01:10:27.923Z,23.40
2022-10-18T01:11:23.465Z,36.35
2022-10-18T01:12:09.333Z,29.02
2022-10-18T01:12:56.535Z,32.63
2022-10-18T01:13:39.735Z,41.30
2022-10-18T01:14:29.260Z,27.77
2022-10-18T01:15:10.742Z,20.17
2022-10-18T01:15:54.522Z,27.55
2022-10-18T01:16:36.146Z,40.88
2022-10-18T01:17:15.501Z,57.05
2022-10-18T01:17:56.351Z,37.92
2022-10-18T01:18:37.514Z,34.20
2022-10-18T01:19:30.558Z,28.92
2022-10-18T01:20:36.996Z,26.85
2022-10-18T01:21:21.472Z,36.80
2022-10-18T01:22:00.922Z,24.00
2022-10-18T01:22:40.722Z,19.10
2022-10-18T01:23:19.603Z,16.52
2022-10-18T01:24:15.699Z,26.45
2022-10-18T01:25:04.872Z,36.25
2022-10-18T01:25:47.334Z,41.50
2022-10-18T01:26:41.818Z,35.72
2022-10-18T01:27:29.067Z,23.63
2022-10-18T01:28:12.203Z,42.00
2022-10-18T01:28:58.382Z,34.92
2022-10-18T01:29:38.477Z,27.95
2022-10-18T01:30:45.885Z,32.00
2022-10-18T01:31:22.454Z,27.08
2022-10-18T01:31:59.704Z,14.63
2022-10-18T01:32:40.393Z,13.38
2022-10-18T01:33:21.398Z,22.80
2022-10-18T01:34:58.330Z,18.05
2022-10-18T01:35:36.455Z,17.58
2022-10-18T01:36:17.715Z,22.23
2022-10-18T01:36:53.568Z,17.02
2022-10-18T01:37:28.105Z,26.65
2022-10-18T01:38:08.117Z,25.90
2022-10-18T01:38:42.752Z,20.45
2022-10-18T01:39:24.011Z,21.20
2022-10-18T01:39:58.867Z,15.63
2022-10-18T01:40:32.197Z,36.97
2022-10-18T01:41:13.284Z,19.20
2022-10-18T01:41:51.425Z,13.95
2022-10-18T01:42:27.478Z,30.98
2022-10-18T01:43:01.318Z,23.15
2022-10-18T01:43:39.120Z,17.23
2022-10-18T01:44:16.169Z,17.35
2022-10-18T01:44:51.109Z,25.83
2022-10-18T01:45:27.578Z,23.05
2022-10-18T01:46:04.472Z,26.52
2022-10-18T01:46:40.047Z,21.15
2022-10-18T01:47:16.882Z,23.73
2022-10-18T01:47:50.551Z,29.88
2022-10-18T01:48:23.810Z,24.83
2022-10-18T01:48:59.732Z,26.52
2022-10-18T01:49:33.505Z,18.55
2022-10-18T01:50:07.379Z,33.80
2022-10-18T01:50:42.191Z,29.67
2022-10-18T01:51:14.264Z,19.40
2022-10-18T01:51:46.411Z,27.92
2022-10-18T01:52:21.074Z,15.00
2022-10-18T01:52:53.187Z,15.57
2022-10-18T01:53:29.566Z,16.73
2022-10-18T01:54:04.607Z,12.90
2022-10-18T01:54:39.301Z,18.27
2022-10-18T01:55:11.716Z,15.80
2022-10-18T01:55:52.299Z,19.48
2022-10-18T01:56:32.759Z,19.17
2022-10-18T01:57:12.704Z,19.50
2022-10-18T01:57:57.077Z,25.20
2022-10-18T01:58:37.075Z,13.98
2022-10-18T01:59:24.440Z,19.90
2022-10-18T02:00:04.607Z,16.75
2022-10-18T02:00:44.476Z,14.05
2022-10-18T02:01:29.928Z,22.15
2022-10-18T02:02:12.291Z,22.85
2022-10-18T02:02:47.996Z,15.25
2022-10-18T02:03:24.167Z,19.75
2022-10-18T02:04:07.407Z,18.35
2022-10-18T02:04:46.146Z,27.38
2022-10-18T02:05:24.823Z,18.67
2022-10-18T02:06:05.396Z,21.10
2022-10-18T02:06:43.543Z,23.10
2022-10-18T02:07:27.983Z,17.27
2022-10-18T02:08:22.846Z,18.58
2022-10-18T02:09:01.085Z,20.40
2022-10-18T02:09:39.585Z,17.23
2022-10-18T02:10:19.814Z,21.08
2022-10-18T02:10:55.949Z,24.40
2022-10-18T02:11:30.770Z,39.38
2022-10-18T02:12:06.802Z,12.15
2022-10-18T02:12:42.819Z,27.60
2022-10-18T02:13:18.038Z,13.75
2022-10-18T02:13:56.765Z,17.60
2022-10-18T02:14:30.978Z,19.23
2022-10-18T02:15:07.594Z,10.93
2022-10-18T02:15:45.443Z,30.40
2022-10-18T02:16:23.764Z,17.00
2022-10-18T02:16:59.138Z,59.28
2022-10-18T02:17:34.931Z,19.80
2022-10-18T02:18:16.728Z,28.83
2022-10-18T02:18:55.702Z,23.15
2022-10-18T02:19:34.302Z,23.13
2022-10-18T02:20:09.221Z,21.30
2022-10-18T02:20:42.301Z,24.08
2022-10-18T02:21:20.903Z,20.25
2022-10-18T02:21:54.563Z,15.18
2022-10-18T02:22:32.212Z,19.48
2022-10-18T02:23:09.919Z,31.90
2022-10-18T02:23:45.096Z,17.35
2022-10-18T02:24:18.745Z,15.60
2022-10-18T02:24:57.759Z,17.58
2022-10-18T02:25:34.005Z,19.50
2022-10-18T02:26:07.003Z,25.33
2022-10-18T02:26:42.320Z,33.40
2022-10-18T02:27:14.731Z,19.90
2022-10-18T02:27:47.242Z,15.07
2022-10-18T02:28:22.200Z,15.27
2022-10-18T02:28:54.453Z,20.33
2022-10-18T02:29:26.746Z,12.98
2022-10-18T02:30:01.915Z,15.13
2022-10-18T02:30:41.322Z,15.50
2022-10-18T02:31:19.572Z,22.70
2022-10-18T02:32:04.284Z,12.80
2022-10-18T02:32:41.285Z,19.67
2022-10-18T02:33:18.129Z,27.67
2022-10-18T02:33:56.635Z,23.17
2022-10-18T02:34:35.532Z,43.78
2022-10-18T02:35:16.559Z,21.40
2022-10-18T02:35:56.882Z,15.70
2022-10-18T02:36:33.683Z,26.83
2022-10-18T02:37:08.503Z,16.55
2022-10-18T02:37:42.212Z,21.30
2022-10-18T02:38:16.431Z,12.23
2022-10-18T02:38:56.270Z,20.38
2022-10-18T02:39:31.439Z,17.77
2022-10-18T02:40:05.393Z,17.80
2022-10-18T02:40:40.066Z,20.75
2022-10-18T02:41:12.412Z,23.15
2022-10-18T02:41:44.694Z,14.57
2022-10-18T02:42:19.428Z,21.38
2022-10-18T02:42:55.972Z,12.02
2022-10-18T02:43:28.190Z,14.52
2022-10-18T02:44:02.937Z,27.67
2022-10-18T02:44:35.302Z,13.27
2022-10-18T02:45:08.103Z,17.35
2022-10-18T02:45:43.050Z,14.40
2022-10-18T02:46:15.224Z,14.35
2022-10-18T02:46:48.238Z,26.75
2022-10-18T02:47:25.527Z,25.05
2022-10-18T02:47:57.689Z,15.65
2022-10-18T02:48:29.859Z,16.13
2022-10-18T02:49:04.561Z,21.95
2022-10-18T02:49:36.683Z,33.85
2022-10-18T02:50:09.727Z,22.80
2022-10-18T02:50:44.397Z,26.50
2022-10-18T02:51:17.029Z,24.63
2022-10-18T02:51:49.268Z,15.80
2022-10-18T02:52:23.998Z,18.15
2022-10-18T02:52:56.139Z,22.88
2022-10-18T02:53:28.243Z,18.30
2022-10-18T02:54:02.947Z,14.23
2022-10-18T02:54:35.112Z,23.75
2022-10-18T02:55:08.297Z,20.52
2022-10-18T02:55:42.990Z,15.40
2022-10-18T02:56:15.089Z,17.90
2022-10-18T02:56:47.218Z,13.45
2022-10-18T02:57:22.080Z,23.80
2022-10-18T02:57:54.136Z,18.73
2022-10-18T02:58:26.263Z,23.70
2022-10-18T02:59:01.504Z,19.30
2022-10-18T02:59:33.575Z,27.17
2022-10-18T03:00:09.538Z,38.28
2022-10-18T03:00:41.661Z,27.05
2022-10-18T03:01:13.887Z,22.90
2022-10-18T03:01:48.634Z,23.30
2022-10-18T03:02:23.358Z,21.80
2022-10-18T03:02:58.003Z,19.67
2022-10-18T03:03:30.215Z,32.78
2022-10-18T03:04:02.888Z,31.85
2022-10-18T03:04:37.633Z,38.05
2022-10-18T03:05:09.744Z,35.50
2022-10-18T03:05:41.856Z,34.63
2022-10-18T03:06:16.527Z,20.02
2022-10-18T03:06:48.690Z,19.65
2022-10-18T03:07:20.870Z,19.95
2022-10-18T03:07:55.508Z,30.73
2022-10-18T03:08:27.622Z,20.20
2022-10-18T03:08:59.930Z,16.67
2022-10-18T03:09:34.596Z,22.88
2022-10-18T03:10:07.994Z,38.13
2022-10-18T03:10:40.064Z,25.60
2022-10-18T03:11:14.735Z,28.20
2022-10-18T03:11:46.838Z,26.73
2022-10-18T03:12:18.919Z,30.08
2022-10-18T03:12:53.597Z,93.97
2022-10-18T03:13:25.826Z,36.13
2022-10-18T03:13:57.930Z,43.83
2022-10-18T03:14:32.626Z,26.70
2022-10-18T03:15:05.827Z,18.67
2022-10-18T03:15:37.980Z,32.20
2022-10-18T03:16:12.801Z,23.90
2022-10-18T03:16:44.891Z,30.33
2022-10-18T03:17:16.997Z,24.52
2022-10-18T03:17:54.271Z,57.33
2022-10-18T03:18:26.942Z,12.98
2022-10-18T03:18:59.027Z,17.77
2022-10-18T03:19:33.835Z,92.35
2022-10-18T03:20:07.102Z,41.28
2022-10-18T03:20:39.193Z,48.75
2022-10-18T03:21:14.133Z,36.80
2022-10-18T03:21:46.236Z,28.05
2022-10-18T03:22:18.404Z,50.25
2022-10-18T03:22:53.129Z,21.17
2022-10-18T03:23:25.360Z,15.00
2022-10-18T03:23:58.742Z,21.65
2022-10-18T03:24:30.869Z,29.83
2022-10-18T03:25:05.704Z,22.85
2022-10-18T03:25:39.599Z,18.40
2022-10-18T03:26:13.749Z,27.42
2022-10-18T03:26:48.396Z,30.92
2022-10-18T03:27:20.569Z,32.78
2022-10-18T03:27:52.771Z,14.82
2022-10-18T03:28:27.564Z,23.92
2022-10-18T03:28:59.763Z,17.95
2022-10-18T03:29:31.895Z,45.50
2022-10-18T03:30:07.115Z,34.25
2022-10-18T03:30:39.201Z,36.70
2022-10-18T03:31:11.274Z,49.10
2022-10-18T03:31:46.060Z,34.67
2022-10-18T03:32:18.121Z,37.53
2022-10-18T03:32:54.323Z,54.95
2022-10-18T03:33:26.407Z,46.25
2022-10-18T03:34:01.070Z,39.50
2022-10-18T03:34:33.141Z,40.65
2022-10-18T03:35:06.111Z,38.85
2022-10-18T03:35:40.779Z,35.70
2022-10-18T03:36:15.507Z,41.95
2022-10-18T03:36:47.691Z,40.97
2022-10-18T03:37:19.769Z,36.22
2022-10-18T03:37:54.607Z,44.50
2022-10-18T03:38:27.067Z,25.77
2022-10-18T03:38:59.159Z,38.00
2022-10-18T03:39:33.855Z,32.30
2022-10-18T03:40:07.933Z,27.23
2022-10-18T03:40:40.080Z,35.00
2022-10-18T03:41:14.775Z,46.80
2022-10-18T03:41:46.888Z,38.83
2022-10-18T03:42:18.968Z,54.92
2022-10-18T03:42:53.644Z,51.70
2022-10-18T03:43:26.106Z,55.42
2022-10-18T03:43:58.233Z,42.42
2022-10-18T03:44:32.933Z,34.55
2022-10-18T03:45:06.058Z,31.60
2022-10-18T03:45:38.165Z,33.58
2022-10-18T03:46:12.894Z,33.40
2022-10-18T03:46:44.986Z,31.38
2022-10-18T03:47:17.093Z,34.08
2022-10-18T03:47:51.779Z,30.35
2022-10-18T03:48:26.542Z,21.88
2022-10-18T03:48:58.631Z,33.13
2022-10-18T03:50:06.061Z,41.05
2022-10-18T03:50:38.197Z,37.45
2022-10-18T03:51:13.011Z,25.98
2022-10-18T03:51:45.080Z,49.53
2022-10-18T03:52:17.233Z,26.23
2022-10-18T03:52:51.959Z,26.00
2022-10-18T03:53:24.151Z,21.48
2022-10-18T03:53:56.222Z,40.88
2022-10-18T03:54:30.923Z,23.02
2022-10-18T03:55:03.221Z,34.80
2022-10-18T03:55:35.325Z,29.23
2022-10-18T03:56:07.568Z,39.88
2022-10-18T03:56:42.290Z,60.13
2022-10-18T03:57:14.450Z,20.05
2022-10-18T03:57:46.593Z,34.40
2022-10-18T03:58:21.301Z,23.48
2022-10-18T03:58:53.435Z,30.90
2022-10-18T03:59:25.544Z,31.98
2022-10-18T04:00:00.196Z,40.33
2022-10-18T04:00:32.423Z,33.45
2022-10-18T04:01:04.545Z,24.13
2022-10-18T04:01:39.206Z,36.72
2022-10-18T04:02:11.338Z,34.22
2022-10-18T04:02:43.463Z,18.65
2022-10-18T04:03:18.331Z,54.13
2022-10-18T04:03:52.995Z,48.17
2022-10-18T04:04:25.080Z,31.20
2022-10-18T04:04:59.970Z,49.65
2022-10-18T04:05:32.065Z,16.95
2022-10-18T04:06:04.491Z,45.05
2022-10-18T04:06:39.163Z,39.88
2022-10-18T04:07:11.251Z,32.03
2022-10-18T04:07:43.346Z,38.22
2022-10-18T04:08:18.796Z,23.98
2022-10-18T04:08:50.970Z,29.45
2022-10-18T04:09:23.099Z,25.35
2022-10-18T04:09:57.768Z,32.83
2022-10-18T04:10:29.837Z,19.10
2022-10-18T04:11:05.599Z,27.65
2022-10-18T04:11:40.273Z,39.92
2022-10-18T04:12:12.373Z,41.95
2022-10-18T04:12:44.507Z,48.28
2022-10-18T04:13:19.158Z,19.48
2022-10-18T04:13:51.265Z,31.65
2022-10-18T04:14:23.398Z,31.67
2022-10-18T04:14:58.093Z,38.25
2022-10-18T04:15:30.197Z,27.60
2022-10-18T04:16:02.323Z,51.35
2022-10-18T04:17:29.252Z,43.03
2022-10-18T04:18:04.516Z,45.00
2022-10-18T04:18:36.588Z,38.92
2022-10-18T04:19:11.250Z,22.75
2022-10-18T04:19:46.049Z,40.58
2022-10-18T04:20:18.341Z,45.67
2022-10-18T04:20:50.423Z,38.15
2022-10-18T04:21:25.075Z,45.85
2022-10-18T04:21:57.162Z,39.88
2022-10-18T04:22:29.393Z,29.77
2022-10-18T04:23:04.065Z,36.70
2022-10-18T04:23:38.674Z,55.33
2022-10-18T04:24:11.177Z,38.30
2022-10-18T04:24:45.894Z,75.15
2022-10-18T04:25:18.315Z,43.05
2022-10-18T04:25:50.914Z,43.17
2022-10-18T04:26:25.673Z,34.15
2022-10-18T04:26:57.870Z,68.65
2022-10-18T04:27:30.268Z,61.70
2022-10-18T04:28:05.130Z,38.00
2022-10-18T04:28:40.164Z,30.13
2022-10-18T04:29:12.565Z,31.85
2022-10-18T04:29:47.350Z,59.95
2022-10-18T04:30:19.601Z,41.55
2022-10-18T04:30:52.192Z,33.97
2022-10-18T04:31:26.872Z,36.72
2022-10-18T04:31:58.958Z,40.13
2022-10-18T04:32:31.253Z,38.25
2022-10-18T04:33:06.001Z,34.80
2022-10-18T04:33:38.812Z,57.53
2022-10-18T04:34:13.779Z,25.90
2022-10-18T04:34:48.559Z,42.53
2022-10-18T04:35:24.502Z,32.42
2022-10-18T04:35:56.649Z,23.02
2022-10-18T04:36:31.363Z,26.30
2022-10-18T04:37:03.494Z,28.75
2022-10-18T04:37:36.040Z,27.45
2022-10-18T04:38:10.737Z,32.35
2022-10-18T04:38:42.810Z,48.90
2022-10-18T04:39:14.897Z,46.15
2022-10-18T04:39:52.723Z,44.05
2022-10-18T04:40:26.052Z,46.95
2022-10-18T04:40:58.104Z,49.65
2022-10-18T04:41:32.830Z,61.08
2022-10-18T04:42:05.086Z,58.67
2022-10-18T04:42:37.267Z,62.17
2022-10-18T04:43:12.142Z,44.80
2022-10-18T04:44:36.255Z,35.83
2022-10-18T04:45:12.016Z,48.20
2022-10-18T04:45:45.254Z,26.20
2022-10-18T04:46:17.416Z,29.50
2022-10-18T04:46:49.510Z,37.90
2022-10-18T04:47:24.177Z,44.13
2022-10-18T04:47:56.330Z,29.75
2022-10-18T04:48:28.426Z,51.55
2022-10-18T04:49:03.511Z,41.40
2022-10-18T04:49:38.206Z,53.85
2022-10-18T04:50:10.465Z,26.27
2022-10-18T04:50:45.165Z,46.55
2022-10-18T04:51:19.593Z,69.13
2022-10-18T04:51:51.664Z,55.22
2022-10-18T04:52:26.492Z,54.13
2022-10-18T04:52:58.750Z,67.38
2022-10-18T04:53:30.843Z,48.55
2022-10-18T04:54:05.749Z,25.17
2022-10-18T04:54:38.327Z,43.63
2022-10-18T04:55:10.840Z,20.65
2022-10-18T04:55:47.015Z,58.15
2022-10-18T04:56:19.600Z,25.70
2022-10-18T04:56:51.660Z,52.63
2022-10-18T04:57:26.350Z,52.80
2022-10-18T04:57:58.443Z,30.33
2022-10-18T04:58:30.580Z,48.38
2022-10-18T04:59:05.246Z,48.72
2022-10-18T04:59:37.549Z,60.60
2022-10-18T05:00:10.413Z,93.88
2022-10-18T05:00:45.386Z,67.25
2022-10-18T05:01:19.131Z,42.42
2022-10-18T05:01:51.583Z,61.65
2022-10-18T05:02:26.518Z,51.42
2022-10-18T05:02:59.016Z,56.88
2022-10-18T05:03:31.402Z,98.07
2022-10-18T05:04:06.264Z,61.53
2022-10-18T05:04:41.070Z,76.35
2022-10-18T05:05:14.288Z,45.55
2022-10-18T05:06:01.295Z,56.05
2022-10-18T05:06:34.431Z,41.00
2022-10-18T05:07:06.758Z,42.40
2022-10-18T05:07:41.505Z,53.67
2022-10-18T05:08:14.028Z,31.80
2022-10-18T05:08:46.210Z,67.05
2022-10-18T05:09:24.616Z,56.03
2022-10-18T05:09:56.754Z,32.58
2022-10-18T05:10:28.822Z,62.00
2022-10-18T05:11:03.971Z,52.75
2022-10-18T05:11:36.110Z,49.65
2022-10-18T05:12:08.247Z,49.38
2022-10-18T05:12:43.831Z,56.85
2022-10-18T05:13:16.127Z,55.17
2022-10-18T05:13:51.061Z,43.33
2022-10-18T05:14:23.256Z,103.15
2022-10-18T05:14:56.814Z,47.75
2022-10-18T05:15:31.653Z,42.85
2022-10-18T05:16:04.156Z,36.38
2022-10-18T05:16:36.557Z,62.85
2022-10-18T05:17:11.520Z,47.42
2022-10-18T05:17:43.595Z,46.70
2022-10-18T05:18:15.998Z,43.25
2022-10-18T05:18:50.791Z,49.88
2022-10-18T05:19:22.906Z,58.83
2022-10-18T05:19:57.770Z,44.38
2022-10-18T05:20:32.758Z,43.28
2022-10-18T05:21:05.343Z,30.08
2022-10-18T05:21:37.643Z,50.30
2022-10-18T05:22:12.351Z,53.05
2022-10-18T05:22:44.554Z,59.83
2022-10-18T05:23:16.690Z,51.88
2022-10-18T05:23:51.448Z,55.05
2022-10-18T05:24:26.943Z,37.97
2022-10-18T05:24:59.976Z,86.72
2022-10-18T05:25:34.656Z,49.67
2022-10-18T05:26:07.645Z,44.88
2022-10-18T05:26:39.889Z,100.50
2022-10-18T05:27:14.572Z,76.55
2022-10-18T05:27:46.674Z,77.68
2022-10-18T05:28:38.699Z,68.00
2022-10-18T05:29:13.722Z,86.75
2022-10-18T05:29:46.210Z,63.47
2022-10-18T05:30:18.535Z,70.25
2022-10-18T05:30:53.222Z,69.47
2022-10-18T05:31:25.363Z,80.60
2022-10-18T05:32:00.223Z,59.35
2022-10-18T05:32:32.622Z,47.97
2022-10-18T05:33:05.412Z,67.28
2022-10-18T05:33:40.389Z,43.10
2022-10-18T05:34:12.483Z,67.55
2022-10-18T05:34:44.707Z,54.08
2022-10-18T05:35:21.946Z,64.57
2022-10-18T05:35:54.185Z,35.58
2022-10-18T05:36:26.553Z,45.08
2022-10-18T05:37:02.189Z,25.48
2022-10-18T05:37:34.298Z,53.38
2022-10-18T05:38:06.569Z,51.33
2022-10-18T05:38:43.267Z,67.88
2022-10-18T05:39:15.634Z,41.83
2022-10-18T05:39:47.993Z,60.42
2022-10-18T05:40:22.724Z,74.57
2022-10-18T05:40:54.835Z,54.08
2022-10-18T05:41:26.980Z,54.13
2022-10-18T05:42:02.496Z,69.53
2022-10-18T05:42:34.720Z,31.45
2022-10-18T05:43:06.967Z,49.88
2022-10-18T05:43:41.896Z,54.55
2022-10-18T05:44:14.039Z,82.07
2022-10-18T05:44:49.123Z,46.13
2022-10-18T05:45:21.303Z,39.60
2022-10-18T05:45:53.373Z,22.65
2022-10-18T05:46:28.096Z,32.85
2022-10-18T05:47:00.195Z,46.30
2022-10-18T05:47:32.489Z,58.10
2022-10-18T05:48:09.425Z,56.88
2022-10-18T05:48:41.551Z,43.90
2022-10-18T05:49:14.173Z,26.75
2022-10-18T05:49:49.217Z,57.95
2022-10-18T05:50:23.883Z,52.92
2022-10-18T05:50:58.504Z,77.18
2022-10-18T05:51:33.478Z,80.03
2022-10-18T05:52:06.151Z,64.45
2022-10-18T05:52:38.327Z,71.07
2022-10-18T05:53:12.581Z,49.97
2022-10-18T05:53:59.372Z,68.07
2022-10-18T05:54:31.599Z,32.03
2022-10-18T05:55:04.268Z,58.47
2022-10-18T05:55:39.086Z,44.72
2022-10-18T05:56:12.141Z,46.95
2022-10-18T05:56:46.837Z,59.20
2022-10-18T05:57:18.948Z,50.35
2022-10-18T05:57:51.234Z,38.47
2022-10-18T05:58:25.896Z,69.35
2022-10-18T05:58:58.150Z,64.65
2022-10-18T05:59:30.298Z,75.45
2022-10-18T06:00:05.522Z,58.15
2022-10-18T06:00:43.959Z,88.22
2022-10-18T06:01:16.074Z,55.17
2022-10-18T06:01:50.736Z,90.30
2022-10-18T06:02:22.950Z,53.38
2022-10-18T06:02:59.433Z,53.78
2022-10-18T11:51:04.497Z,32.15
2022-10-18T11:52:07.765Z,31.20
2022-10-18T11:52:59.095Z,21.02
2022-10-18T11:54:29.539Z,27.70
2022-10-18T11:55:19.292Z,26.00
2022-10-18T11:56:04.914Z,30.52
2022-10-18T11:56:43.042Z,38.38
2022-10-18T11:57:34.706Z,25.48
2022-10-18T11:58:22.035Z,35.88
2022-10-18T11:59:21.377Z,41.58
2022-10-18T12:00:00.758Z,46.38
2022-10-18T12:00:49.328Z,56.72
2022-10-18T12:01:29.966Z,36.92
2022-10-18T12:02:32.285Z,42.63
2022-10-18T12:03:15.928Z,49.45
2022-10-18T12:04:03.233Z,33.95
2022-10-18T12:04:49.041Z,37.05
2022-10-18T12:05:40.785Z,46.80
2022-10-18T12:06:17.435Z,58.85
2022-10-18T12:06:57.507Z,78.97
2022-10-18T12:07:34.176Z,22.75
2022-10-18T12:08:12.634Z,50.10
2022-10-18T12:08:49.975Z,52.53
2022-10-18T12:09:26.627Z,48.40
2022-10-18T12:10:02.563Z,69.43
2022-10-18T12:10:52.753Z,50.95
2022-10-18T12:11:35.977Z,49.55
2022-10-18T12:12:12.795Z,65.57
2022-10-18T12:12:53.955Z,33.90
2022-10-18T12:13:33.460Z,42.42
2022-10-18T12:14:16.790Z,52.38
2022-10-18T12:14:53.517Z,48.53
2022-10-18T12:15:27.857Z,27.58
2022-10-18T12:16:05.042Z,50.58
2022-10-18T12:16:51.015Z,41.95
2022-10-18T12:17:47.512Z,58.85
2022-10-18T12:18:26.013Z,45.08
2022-10-18T12:19:04.226Z,58.15
2022-10-18T12:19:36.797Z,59.75
2022-10-18T12:20:17.404Z,48.22
2022-10-18T12:20:58.279Z,118.93
2022-10-18T12:21:34.445Z,69.15
2022-10-18T12:22:17.345Z,54.50
2022-10-18T12:22:56.687Z,52.72
2022-10-18T12:23:40.969Z,65.38
2022-10-18T12:24:18.837Z,87.28
2022-10-18T12:24:53.494Z,73.95
2022-10-18T12:25:26.220Z,48.58
2022-10-18T12:26:02.652Z,83.05
2022-10-18T12:26:38.482Z,56.40
2022-10-18T12:27:14.859Z,43.97
2022-10-18T12:27:57.318Z,73.70
2022-10-18T12:28:41.625Z,76.70
2022-10-18T12:29:23.089Z,47.40
2022-10-18T12:30:02.839Z,52.63
2022-10-18T12:30:45.082Z,45.15
2022-10-18T12:31:22.974Z,56.63
2022-10-18T12:32:02.048Z,55.35
2022-10-18T12:32:37.503Z,38.67
2022-10-18T12:33:27.866Z,56.90
2022-10-18T12:34:06.302Z,75.63
2022-10-18T12:34:46.540Z,55.30
2022-10-18T12:35:21.008Z,54.80
2022-10-18T12:36:05.979Z,53.10
2022-10-18T12:36:55.163Z,61.75
2022-10-18T12:37:46.930Z,54.38
2022-10-18T12:38:28.151Z,59.45
2022-10-18T12:39:03.542Z,64.93
2022-10-18T12:39:43.662Z,54.72
2022-10-18T12:40:28.619Z,54.22
2022-10-18T12:41:01.661Z,59.45
2022-10-18T12:41:36.139Z,69.82
2022-10-18T12:42:22.284Z,72.82
2022-10-18T12:42:54.571Z,47.63
2022-10-18T12:43:36.513Z,37.35
2022-10-18T12:44:24.761Z,65.38
2022-10-18T12:45:05.576Z,52.75
2022-10-18T12:45:50.041Z,26.05
2022-10-18T12:46:25.227Z,85.05
2022-10-18T12:46:59.913Z,62.88
2022-10-18T12:47:35.720Z,52.83
2022-10-18T12:48:08.943Z,54.13
2022-10-18T12:48:47.081Z,61.85
2022-10-18T12:49:24.381Z,82.25
2022-10-18T12:49:58.146Z,86.15
2022-10-18T12:50:37.555Z,64.93
2022-10-18T12:51:17.811Z,38.55
2022-10-18T12:51:54.796Z,57.85
2022-10-18T12:52:29.431Z,90.18
2022-10-18T12:53:10.501Z,87.30
2022-10-18T12:53:45.288Z,112.22
2022-10-18T12:54:21.986Z,92.53
2022-10-18T12:55:23.291Z,78.25
2022-10-18T12:56:19.888Z,74.10
2022-10-18T12:56:54.042Z,65.70
2022-10-18T12:58:05.414Z,64.75
2022-10-18T12:58:37.515Z,66.72
2022-10-18T12:59:43.304Z,66.53
2022-10-18T13:00:47.921Z,56.33
2022-10-18T13:01:20.103Z,71.28
2022-10-18T13:02:22.163Z,73.97
2022-10-18T13:03:39.112Z,63.65
2022-10-18T13:04:38.395Z,66.93
2022-10-18T13:05:55.288Z,48.38
2022-10-18T13:07:08.503Z,52.20
2022-10-18T13:07:43.473Z,51.58
2022-10-18T13:08:42.129Z,57.63
2022-10-18T13:09:21.801Z,43.17
2022-10-18T13:10:35.299Z,55.72
2022-10-18T13:11:32.948Z,59.42
2022-10-18T13:12:46.486Z,79.18
2022-10-18T13:13:48.007Z,51.85
2022-10-18T13:14:59.216Z,42.13
2022-10-18T13:15:44.537Z,51.83
2022-10-18T13:16:39.785Z,72.40
2022-10-18T13:17:24.911Z,41.58
2022-10-18T13:18:06.402Z,47.78
2022-10-18T13:18:50.674Z,56.20
2022-10-18T13:19:34.624Z,68.28
2022-10-18T13:20:25.987Z,80.10
2022-10-18T13:21:15.392Z,57.33
2022-10-18T13:21:55.823Z,68.57
2022-10-18T13:22:46.413Z,27.83
2022-10-18T13:23:38.266Z,59.08
2022-10-18T13:24:24.453Z,52.45
2022-10-18T13:25:04.463Z,66.68
2022-10-18T13:25:52.100Z,57.70
2022-10-18T13:26:34.419Z,44.78
2022-10-18T13:27:42.414Z,82.47
2022-10-18T13:28:27.554Z,56.20
2022-10-18T13:29:10.351Z,40.08
2022-10-18T13:29:57.021Z,49.58
2022-10-18T13:30:50.724Z,57.40
2022-10-18T13:31:28.972Z,80.53
2022-10-18T13:32:07.778Z,57.67
2022-10-18T13:32:53.189Z,61.42
2022-10-18T13:33:32.791Z,60.70
2022-10-18T13:34:26.730Z,49.38
2022-10-18T13:34:58.963Z,36.85
2022-10-18T13:35:54.898Z,55.80
2022-10-18T13:36:34.622Z,53.22
2022-10-18T13:37:20.858Z,55.05
2022-10-18T13:38:01.286Z,54.53
2022-10-18T13:38:42.764Z,31.50
2022-10-18T13:39:23.016Z,64.78
2022-10-18T13:40:22.962Z,47.47
2022-10-18T13:41:04.335Z,52.85
2022-10-18T13:42:06.222Z,76.45
2022-10-18T13:42:40.916Z,62.60
2022-10-18T13:43:43.010Z,38.20
2022-10-18T13:44:37.842Z,61.83
2022-10-18T13:45:40.074Z,83.40
2022-10-18T13:46:14.766Z,38.60
2022-10-18T13:47:19.824Z,48.28
2022-10-18T13:47:54.541Z,87.78
2022-10-18T13:48:45.106Z,100.90
2022-10-18T13:49:34.536Z,59.70
2022-10-18T13:50:31.000Z,51.63